sensor_id;sensor_type;location;lat;lon;timestamp;P1;durP1;ratioP1;P2;durP2;ratioP2
62014;SDS011;47970;52.396;9.586;2022-10-17T00:02:02;3.90;;;1.63;;
62014;SDS011;47970;52.396;9.586;2022-10-17T00:04:27;3.00;;;1.60;;
62014;SDS011;47970;52.396;9.586;2022-10-17T00:06:53;8.57;;;1.73;;
62014;SDS011;47970;52.396;9.586;2022-10-17T00:09:18;4.00;;;1.80;;
62014;SDS011;47970;52.396;9.586;2022-10-17T00:11:43;5.03;;;1.70;;
62014;SDS011;47970;52.396;9.586;2022-10-17T00:14:09;6.60;;;1.67;;
62014;SDS011;47970;52.396;9.586;2022-10-17T00:16:34;6.13;;;1.70;;
62014;SDS011;47970;52.396;9.586;2022-10-17T00:19:03;5.50;;;1.30;;
62014;SDS011;47970;52.396;9.586;2022-10-17T00:21:29;3.42;;;1.42;;
62014;SDS011;47970;52.396;9.586;2022-10-17T00:23:54;4.40;;;2.08;;
62014;SDS011;47970;52.396;9.586;2022-10-17T00:26:19;3.27;;;1.10;;
62014;SDS011;47970;52.396;9.586;2022-10-17T00:28:48;2.13;;;1.20;;
62014;SDS011;47970;52.396;9.586;2022-10-17T00:31:14;1.77;;;1.17;;
62014;SDS011;47970;52.396;9.586;2022-10-17T00:33:40;4.30;;;1.10;;
62014;SDS011;47970;52.396;9.586;2022-10-17T00:36:11;3.17;;;1.02;;
62014;SDS011;47970;52.396;9.586;2022-10-17T00:38:37;1.38;;;1.02;;
62014;SDS011;47970;52.396;9.586;2022-10-17T00:41:03;3.25;;;1.10;;
62014;SDS011;47970;52.396;9.586;2022-10-17T00:43:28;8.20;;;1.52;;
62014;SDS011;47970;52.396;9.586;2022-10-17T00:45:54;5.80;;;1.23;;
62014;SDS011;47970;52.396;9.586;2022-10-17T00:48:20;3.65;;;1.45;;
62014;SDS011;47970;52.396;9.586;2022-10-17T00:50:46;3.22;;;1.25;;
62014;SDS011;47970;52.396;9.586;2022-10-17T00:53:12;2.25;;;1.30;;
62014;SDS011;47970;52.396;9.586;2022-10-17T00:55:43;5.05;;;1.73;;
62014;SDS011;47970;52.396;9.586;2022-10-17T00:58:10;2.05;;;1.30;;
62014;SDS011;47970;52.396;9.586;2022-10-17T01:00:35;2.90;;;1.47;;
62014;SDS011;47970;52.396;9.586;2022-10-17T01:03:01;2.90;;;1.58;;
62014;SDS011;47970;52.396;9.586;2022-10-17T01:05:26;5.15;;;1.40;;
62014;SDS011;47970;52.396;9.586;2022-10-17T01:07:52;6.30;;;1.40;;
62014;SDS011;47970;52.396;9.586;2022-10-17T01:10:17;3.17;;;1.52;;
62014;SDS011;47970;52.396;9.586;2022-10-17T01:23:26;3.03;;;1.40;;
62014;SDS011;47970;52.396;9.586;2022-10-17T01:33:02;1.73;;;1.27;;
62014;SDS011;47970;52.396;9.586;2022-10-17T01:35:38;2.22;;;1.30;;
62014;SDS011;47970;52.396;9.586;2022-10-17T01:38:18;6.72;;;2.38;;
62014;SDS011;47970;52.396;9.586;2022-10-17T01:40:49;4.93;;;1.60;;
62014;SDS011;47970;52.396;9.586;2022-10-17T01:43:16;5.40;;;1.67;;
62014;SDS011;47970;52.396;9.586;2022-10-17T01:48:51;2.67;;;1.73;;
62014;SDS011;47970;52.396;9.586;2022-10-17T01:51:17;3.20;;;1.70;;
62014;SDS011;47970;52.396;9.586;2022-10-17T01:53:56;3.15;;;1.60;;
62014;SDS011;47970;52.396;9.586;2022-10-17T01:56:23;2.95;;;1.50;;
62014;SDS011;47970;52.396;9.586;2022-10-17T01:58:55;3.15;;;1.70;;
62014;SDS011;47970;52.396;9.586;2022-10-17T02:01:21;3.28;;;1.60;;
62014;SDS011;47970;52.396;9.586;2022-10-17T02:03:46;3.72;;;1.80;;
62014;SDS011;47970;52.396;9.586;2022-10-17T02:06:13;2.60;;;1.52;;
62014;SDS011;47970;52.396;9.586;2022-10-17T02:08:39;3.43;;;1.90;;
62014;SDS011;47970;52.396;9.586;2022-10-17T02:11:07;4.00;;;2.00;;
62014;SDS011;47970;52.396;9.586;2022-10-17T02:21:19;6.10;;;1.73;;
62014;SDS011;47970;52.396;9.586;2022-10-17T02:23:54;3.45;;;1.50;;
62014;SDS011;47970;52.396;9.586;2022-10-17T02:26:31;2.33;;;1.42;;
62014;SDS011;47970;52.396;9.586;2022-10-17T02:29:04;4.25;;;1.75;;
62014;SDS011;47970;52.396;9.586;2022-10-17T02:31:32;3.47;;;1.95;;
62014;SDS011;47970;52.396;9.586;2022-10-17T02:34:01;3.13;;;1.63;;
62014;SDS011;47970;52.396;9.586;2022-10-17T02:36:29;5.93;;;1.70;;
62014;SDS011;47970;52.396;9.586;2022-10-17T02:38:56;4.63;;;1.90;;
62014;SDS011;47970;52.396;9.586;2022-10-17T02:41:22;5.43;;;1.80;;
62014;SDS011;47970;52.396;9.586;2022-10-17T02:43:48;4.10;;;1.50;;
62014;SDS011;47970;52.396;9.586;2022-10-17T02:46:14;2.70;;;1.52;;
62014;SDS011;47970;52.396;9.586;2022-10-17T02:53:52;5.25;;;1.70;;
62014;SDS011;47970;52.396;9.586;2022-10-17T02:56:19;5.18;;;2.40;;
62014;SDS011;47970;52.396;9.586;2022-10-17T02:58:46;5.38;;;1.88;;
62014;SDS011;47970;52.396;9.586;2022-10-17T03:01:13;7.15;;;2.17;;
62014;SDS011;47970;52.396;9.586;2022-10-17T03:03:38;2.90;;;1.48;;
62014;SDS011;47970;52.396;9.586;2022-10-17T03:06:03;8.67;;;2.37;;
62014;SDS011;47970;52.396;9.586;2022-10-17T03:08:29;4.95;;;2.00;;
62014;SDS011;47970;52.396;9.586;2022-10-17T03:10:54;3.33;;;1.90;;
62014;SDS011;47970;52.396;9.586;2022-10-17T03:13:19;7.07;;;2.33;;
62014;SDS011;47970;52.396;9.586;2022-10-17T03:15:44;4.80;;;2.00;;
62014;SDS011;47970;52.396;9.586;2022-10-17T03:18:10;6.78;;;1.90;;
62014;SDS011;47970;52.396;9.586;2022-10-17T03:20:35;2.90;;;2.20;;
62014;SDS011;47970;52.396;9.586;2022-10-17T03:23:00;6.13;;;1.70;;
62014;SDS011;47970;52.396;9.586;2022-10-17T03:25:25;3.90;;;1.85;;
62014;SDS011;47970;52.396;9.586;2022-10-17T03:27:51;4.88;;;1.88;;
62014;SDS011;47970;52.396;9.586;2022-10-17T03:30:16;6.22;;;2.25;;
62014;SDS011;47970;52.396;9.586;2022-10-17T03:32:42;2.92;;;1.90;;
62014;SDS011;47970;52.396;9.586;2022-10-17T03:35:07;3.33;;;1.97;;
62014;SDS011;47970;52.396;9.586;2022-10-17T03:37:32;5.25;;;2.17;;
62014;SDS011;47970;52.396;9.586;2022-10-17T03:39:57;5.20;;;1.93;;
62014;SDS011;47970;52.396;9.586;2022-10-17T03:42:22;4.30;;;1.77;;
62014;SDS011;47970;52.396;9.586;2022-10-17T03:44:48;3.10;;;1.80;;
62014;SDS011;47970;52.396;9.586;2022-10-17T03:47:13;4.57;;;2.00;;
62014;SDS011;47970;52.396;9.586;2022-10-17T03:49:38;7.97;;;2.30;;
62014;SDS011;47970;52.396;9.586;2022-10-17T03:52:03;3.10;;;2.00;;
62014;SDS011;47970;52.396;9.586;2022-10-17T03:54:28;5.40;;;2.13;;
62014;SDS011;47970;52.396;9.586;2022-10-17T03:56:54;3.63;;;2.03;;
62014;SDS011;47970;52.396;9.586;2022-10-17T03:59:19;3.67;;;1.97;;
62014;SDS011;47970;52.396;9.586;2022-10-17T04:01:44;3.42;;;1.88;;
62014;SDS011;47970;52.396;9.586;2022-10-17T04:04:09;6.23;;;2.23;;
62014;SDS011;47970;52.396;9.586;2022-10-17T04:06:35;4.13;;;2.30;;
62014;SDS011;47970;52.396;9.586;2022-10-17T04:09:00;7.72;;;1.92;;
62014;SDS011;47970;52.396;9.586;2022-10-17T04:11:26;3.70;;;1.88;;
62014;SDS011;47970;52.396;9.586;2022-10-17T04:13:52;3.40;;;1.97;;
62014;SDS011;47970;52.396;9.586;2022-10-17T04:16:18;4.68;;;2.42;;
62014;SDS011;47970;52.396;9.586;2022-10-17T04:18:43;9.20;;;2.50;;
62014;SDS011;47970;52.396;9.586;2022-10-17T04:21:09;3.83;;;1.80;;
62014;SDS011;47970;52.396;9.586;2022-10-17T04:23:34;7.10;;;1.80;;
62014;SDS011;47970;52.396;9.586;2022-10-17T04:26:00;3.40;;;1.90;;
62014;SDS011;47970;52.396;9.586;2022-10-17T04:28:26;6.15;;;1.92;;
62014;SDS011;47970;52.396;9.586;2022-10-17T04:30:58;13.18;;;2.40;;
62014;SDS011;47970;52.396;9.586;2022-10-17T04:33:24;7.60;;;2.33;;
62014;SDS011;47970;52.396;9.586;2022-10-17T04:35:56;3.28;;;1.90;;
62014;SDS011;47970;52.396;9.586;2022-10-17T04:38:21;3.97;;;2.33;;
62014;SDS011;47970;52.396;9.586;2022-10-17T04:40:46;6.17;;;2.20;;
62014;SDS011;47970;52.396;9.586;2022-10-17T04:43:11;6.53;;;2.23;;
62014;SDS011;47970;52.396;9.586;2022-10-17T04:45:36;5.10;;;2.30;;
62014;SDS011;47970;52.396;9.586;2022-10-17T04:48:02;7.13;;;2.13;;
62014;SDS011;47970;52.396;9.586;2022-10-17T04:50:27;9.27;;;2.05;;
62014;SDS011;47970;52.396;9.586;2022-10-17T04:52:52;13.27;;;2.00;;
62014;SDS011;47970;52.396;9.586;2022-10-17T04:55:17;6.20;;;2.30;;
62014;SDS011;47970;52.396;9.586;2022-10-17T04:57:42;3.00;;;2.20;;
62014;SDS011;47970;52.396;9.586;2022-10-17T05:00:08;4.17;;;2.30;;
62014;SDS011;47970;52.396;9.586;2022-10-17T05:02:33;4.15;;;2.00;;
62014;SDS011;47970;52.396;9.586;2022-10-17T05:04:58;4.20;;;1.97;;
62014;SDS011;47970;52.396;9.586;2022-10-17T05:07:24;7.43;;;2.57;;
62014;SDS011;47970;52.396;9.586;2022-10-17T05:09:49;8.83;;;2.10;;
62014;SDS011;47970;52.396;9.586;2022-10-17T05:12:14;7.90;;;2.53;;
62014;SDS011;47970;52.396;9.586;2022-10-17T05:14:39;3.40;;;2.20;;
62014;SDS011;47970;52.396;9.586;2022-10-17T05:17:04;5.50;;;2.40;;
62014;SDS011;47970;52.396;9.586;2022-10-17T05:19:30;3.97;;;2.43;;
62014;SDS011;47970;52.396;9.586;2022-10-17T05:21:55;4.57;;;2.65;;
62014;SDS011;47970;52.396;9.586;2022-10-17T05:24:20;8.73;;;2.40;;
62014;SDS011;47970;52.396;9.586;2022-10-17T05:26:45;8.52;;;2.30;;
62014;SDS011;47970;52.396;9.586;2022-10-17T05:29:10;4.13;;;2.07;;
62014;SDS011;47970;52.396;9.586;2022-10-17T05:31:36;6.93;;;2.13;;
62014;SDS011;47970;52.396;9.586;2022-10-17T05:34:01;3.92;;;2.10;;
62014;SDS011;47970;52.396;9.586;2022-10-17T05:36:27;7.00;;;2.05;;
62014;SDS011;47970;52.396;9.586;2022-10-17T05:38:52;6.43;;;2.08;;
62014;SDS011;47970;52.396;9.586;2022-10-17T05:41:17;6.63;;;2.40;;
62014;SDS011;47970;52.396;9.586;2022-10-17T05:43:43;3.03;;;1.98;;
62014;SDS011;47970;52.396;9.586;2022-10-17T05:46:08;5.20;;;1.80;;
62014;SDS011;47970;52.396;9.586;2022-10-17T05:48:34;5.45;;;1.88;;
62014;SDS011;47970;52.396;9.586;2022-10-17T05:51:03;4.23;;;1.80;;
62014;SDS011;47970;52.396;9.586;2022-10-17T05:53:29;7.10;;;2.00;;
62014;SDS011;47970;52.396;9.586;2022-10-17T05:55:55;3.53;;;1.80;;
62014;SDS011;47970;52.396;9.586;2022-10-17T05:58:21;3.83;;;2.00;;
62014;SDS011;47970;52.396;9.586;2022-10-17T06:00:46;3.73;;;1.83;;
62014;SDS011;47970;52.396;9.586;2022-10-17T06:03:11;6.13;;;2.30;;
62014;SDS011;47970;52.396;9.586;2022-10-17T06:05:36;2.73;;;1.80;;
62014;SDS011;47970;52.396;9.586;2022-10-17T06:08:01;4.13;;;1.93;;
62014;SDS011;47970;52.396;9.586;2022-10-17T06:10:27;4.43;;;1.87;;
62014;SDS011;47970;52.396;9.586;2022-10-17T06:12:52;6.87;;;1.70;;
62014;SDS011;47970;52.396;9.586;2022-10-17T06:15:17;3.42;;;1.63;;
62014;SDS011;47970;52.396;9.586;2022-10-17T06:17:42;4.97;;;1.90;;
62014;SDS011;47970;52.396;9.586;2022-10-17T06:20:08;2.83;;;1.90;;
62014;SDS011;47970;52.396;9.586;2022-10-17T06:22:33;8.25;;;1.90;;
62014;SDS011;47970;52.396;9.586;2022-10-17T06:24:58;3.70;;;1.90;;
62014;SDS011;47970;52.396;9.586;2022-10-17T06:27:23;3.53;;;2.10;;
62014;SDS011;47970;52.396;9.586;2022-10-17T06:29:49;5.70;;;1.73;;
62014;SDS011;47970;52.396;9.586;2022-10-17T06:32:15;3.17;;;2.03;;
62014;SDS011;47970;52.396;9.586;2022-10-17T06:34:40;5.95;;;1.80;;
62014;SDS011;47970;52.396;9.586;2022-10-17T06:37:05;3.87;;;1.97;;
62014;SDS011;47970;52.396;9.586;2022-10-17T06:39:31;4.53;;;1.83;;
62014;SDS011;47970;52.396;9.586;2022-10-17T06:42:01;3.75;;;1.75;;
62014;SDS011;47970;52.396;9.586;2022-10-17T06:44:26;2.30;;;1.70;;
62014;SDS011;47970;52.396;9.586;2022-10-17T06:46:55;3.75;;;1.65;;
62014;SDS011;47970;52.396;9.586;2022-10-17T06:49:20;6.35;;;1.77;;
62014;SDS011;47970;52.396;9.586;2022-10-17T06:51:46;4.38;;;2.05;;
62014;SDS011;47970;52.396;9.586;2022-10-17T06:54:11;5.33;;;2.00;;
62014;SDS011;47970;52.396;9.586;2022-10-17T06:56:36;4.57;;;2.33;;
62014;SDS011;47970;52.396;9.586;2022-10-17T06:59:02;4.47;;;1.67;;
62014;SDS011;47970;52.396;9.586;2022-10-17T07:01:27;3.17;;;1.87;;
62014;SDS011;47970;52.396;9.586;2022-10-17T07:03:55;5.03;;;2.00;;
62014;SDS011;47970;52.396;9.586;2022-10-17T07:06:20;5.47;;;1.97;;
62014;SDS011;47970;52.396;9.586;2022-10-17T07:08:48;4.97;;;2.22;;
62014;SDS011;47970;52.396;9.586;2022-10-17T07:11:15;5.75;;;1.60;;
62014;SDS011;47970;52.396;9.586;2022-10-17T07:13:41;5.95;;;2.00;;
62014;SDS011;47970;52.396;9.586;2022-10-17T07:16:07;5.72;;;2.10;;
62014;SDS011;47970;52.396;9.586;2022-10-17T07:18:32;4.88;;;2.05;;
62014;SDS011;47970;52.396;9.586;2022-10-17T07:20:57;4.43;;;2.30;;
62014;SDS011;47970;52.396;9.586;2022-10-17T07:23:22;6.80;;;2.00;;
62014;SDS011;47970;52.396;9.586;2022-10-17T07:25:48;5.43;;;1.90;;
62014;SDS011;47970;52.396;9.586;2022-10-17T07:28:13;3.15;;;1.75;;
62014;SDS011;47970;52.396;9.586;2022-10-17T07:30:39;8.80;;;2.47;;
62014;SDS011;47970;52.396;9.586;2022-10-17T07:33:04;4.55;;;1.85;;
62014;SDS011;47970;52.396;9.586;2022-10-17T07:35:29;2.87;;;1.70;;
62014;SDS011;47970;52.396;9.586;2022-10-17T07:37:54;4.67;;;1.80;;
62014;SDS011;47970;52.396;9.586;2022-10-17T07:40:19;3.03;;;1.70;;
62014;SDS011;47970;52.396;9.586;2022-10-17T07:42:45;4.72;;;2.20;;
62014;SDS011;47970;52.396;9.586;2022-10-17T07:45:10;5.77;;;2.27;;
62014;SDS011;47970;52.396;9.586;2022-10-17T07:47:35;6.77;;;1.77;;
62014;SDS011;47970;52.396;9.586;2022-10-17T07:50:01;5.35;;;2.20;;
62014;SDS011;47970;52.396;9.586;2022-10-17T07:52:26;11.98;;;2.33;;
62014;SDS011;47970;52.396;9.586;2022-10-17T07:54:52;7.03;;;2.00;;
62014;SDS011;47970;52.396;9.586;2022-10-17T07:57:17;6.77;;;1.90;;
62014;SDS011;47970;52.396;9.586;2022-10-17T07:59:42;3.63;;;1.80;;
62014;SDS011;47970;52.396;9.586;2022-10-17T08:02:09;10.03;;;2.00;;
62014;SDS011;47970;52.396;9.586;2022-10-17T08:04:38;7.07;;;1.98;;
62014;SDS011;47970;52.396;9.586;2022-10-17T08:07:03;2.78;;;1.67;;
62014;SDS011;47970;52.396;9.586;2022-10-17T08:09:28;12.23;;;2.07;;
62014;SDS011;47970;52.396;9.586;2022-10-17T08:11:53;6.20;;;1.93;;
62014;SDS011;47970;52.396;9.586;2022-10-17T08:14:19;3.27;;;1.50;;
62014;SDS011;47970;52.396;9.586;2022-10-17T08:16:44;4.63;;;2.00;;
62014;SDS011;47970;52.396;9.586;2022-10-17T08:19:09;5.07;;;2.07;;
62014;SDS011;47970;52.396;9.586;2022-10-17T08:21:35;5.35;;;1.83;;
62014;SDS011;47970;52.396;9.586;2022-10-17T08:24:00;4.43;;;1.70;;
62014;SDS011;47970;52.396;9.586;2022-10-17T08:26:27;7.28;;;2.00;;
62014;SDS011;47970;52.396;9.586;2022-10-17T08:28:52;6.65;;;2.88;;
62014;SDS011;47970;52.396;9.586;2022-10-17T08:31:18;8.70;;;1.52;;
62014;SDS011;47970;52.396;9.586;2022-10-17T08:33:43;9.02;;;1.80;;
62014;SDS011;47970;52.396;9.586;2022-10-17T08:36:09;5.67;;;1.97;;
62014;SDS011;47970;52.396;9.586;2022-10-17T08:38:36;3.72;;;1.92;;
62014;SDS011;47970;52.396;9.586;2022-10-17T08:41:05;7.68;;;2.10;;
62014;SDS011;47970;52.396;9.586;2022-10-17T08:46:15;4.05;;;1.77;;
62014;SDS011;47970;52.396;9.586;2022-10-17T08:48:41;4.45;;;1.75;;
62014;SDS011;47970;52.396;9.586;2022-10-17T08:51:18;5.90;;;1.90;;
62014;SDS011;47970;52.396;9.586;2022-10-17T08:53:48;11.95;;;2.00;;
62014;SDS011;47970;52.396;9.586;2022-10-17T08:58:41;4.47;;;1.90;;
62014;SDS011;47970;52.396;9.586;2022-10-17T09:01:10;7.27;;;1.83;;
62014;SDS011;47970;52.396;9.586;2022-10-17T09:06:22;7.00;;;1.95;;
62014;SDS011;47970;52.396;9.586;2022-10-17T09:14:07;5.38;;;2.00;;
62014;SDS011;47970;52.396;9.586;2022-10-17T09:16:42;6.40;;;2.40;;
62014;SDS011;47970;52.396;9.586;2022-10-17T09:19:22;3.85;;;2.10;;
62014;SDS011;47970;52.396;9.586;2022-10-17T09:21:51;4.22;;;2.10;;
62014;SDS011;47970;52.396;9.586;2022-10-17T09:24:19;5.53;;;1.60;;
62014;SDS011;47970;52.396;9.586;2022-10-17T09:26:46;5.32;;;1.88;;
62014;SDS011;47970;52.396;9.586;2022-10-17T09:29:17;3.35;;;1.90;;
62014;SDS011;47970;52.396;9.586;2022-10-17T09:31:52;8.82;;;2.20;;
62014;SDS011;47970;52.396;9.586;2022-10-17T09:34:18;3.55;;;1.67;;
62014;SDS011;47970;52.396;9.586;2022-10-17T09:36:44;3.83;;;1.87;;
62014;SDS011;47970;52.396;9.586;2022-10-17T09:41:35;5.83;;;1.50;;
62014;SDS011;47970;52.396;9.586;2022-10-17T09:44:12;5.43;;;1.90;;
62014;SDS011;47970;52.396;9.586;2022-10-17T09:46:38;2.78;;;1.90;;
62014;SDS011;47970;52.396;9.586;2022-10-17T09:49:11;5.87;;;3.00;;
62014;SDS011;47970;52.396;9.586;2022-10-17T09:51:38;5.03;;;2.00;;
62014;SDS011;47970;52.396;9.586;2022-10-17T09:54:04;4.20;;;1.75;;
62014;SDS011;47970;52.396;9.586;2022-10-17T09:56:31;3.53;;;1.90;;
62014;SDS011;47970;52.396;9.586;2022-10-17T09:59:27;5.60;;;1.85;;
62014;SDS011;47970;52.396;9.586;2022-10-17T10:01:53;4.70;;;1.70;;
62014;SDS011;47970;52.396;9.586;2022-10-17T10:04:31;10.07;;;1.88;;
62014;SDS011;47970;52.396;9.586;2022-10-17T10:07:00;4.47;;;1.73;;
62014;SDS011;47970;52.396;9.586;2022-10-17T10:09:29;5.55;;;2.03;;
62014;SDS011;47970;52.396;9.586;2022-10-17T10:11:55;7.38;;;1.85;;
62014;SDS011;47970;52.396;9.586;2022-10-17T10:16:49;3.47;;;1.80;;
62014;SDS011;47970;52.396;9.586;2022-10-17T10:19:31;3.22;;;1.52;;
62014;SDS011;47970;52.396;9.586;2022-10-17T10:21:58;5.15;;;1.80;;
62014;SDS011;47970;52.396;9.586;2022-10-17T10:24:24;5.80;;;1.88;;
62014;SDS011;47970;52.396;9.586;2022-10-17T10:26:50;4.97;;;1.70;;
62014;SDS011;47970;52.396;9.586;2022-10-17T10:31:44;5.07;;;1.70;;
62014;SDS011;47970;52.396;9.586;2022-10-17T10:36:45;4.57;;;1.77;;
62014;SDS011;47970;52.396;9.586;2022-10-17T10:39:18;4.43;;;1.70;;
62014;SDS011;47970;52.396;9.586;2022-10-17T10:41:46;9.50;;;1.83;;
62014;SDS011;47970;52.396;9.586;2022-10-17T10:44:12;6.90;;;1.60;;
62014;SDS011;47970;52.396;9.586;2022-10-17T10:46:39;6.35;;;2.00;;
62014;SDS011;47970;52.396;9.586;2022-10-17T10:49:04;7.47;;;2.07;;
62014;SDS011;47970;52.396;9.586;2022-10-17T10:51:49;6.80;;;1.92;;
62014;SDS011;47970;52.396;9.586;2022-10-17T10:56:46;3.70;;;1.70;;
62014;SDS011;47970;52.396;9.586;2022-10-17T11:01:52;6.47;;;2.00;;
62014;SDS011;47970;52.396;9.586;2022-10-17T11:04:26;8.85;;;2.10;;
62014;SDS011;47970;52.396;9.586;2022-10-17T11:06:59;4.28;;;1.65;;
62014;SDS011;47970;52.396;9.586;2022-10-17T11:12:26;5.32;;;1.83;;
62014;SDS011;47970;52.396;9.586;2022-10-17T11:14:58;4.32;;;1.70;;
62014;SDS011;47970;52.396;9.586;2022-10-17T11:17:38;4.25;;;1.70;;
62014;SDS011;47970;52.396;9.586;2022-10-17T11:22:30;3.80;;;1.77;;
62014;SDS011;47970;52.396;9.586;2022-10-17T11:27:36;6.50;;;1.60;;
62014;SDS011;47970;52.396;9.586;2022-10-17T11:30:02;4.75;;;1.70;;
62014;SDS011;47970;52.396;9.586;2022-10-17T11:32:30;6.78;;;1.70;;
62014;SDS011;47970;52.396;9.586;2022-10-17T11:35:22;9.13;;;1.95;;
62014;SDS011;47970;52.396;9.586;2022-10-17T11:37:45;8.73;;;2.80;;
62014;SDS011;47970;52.396;9.586;2022-10-17T11:40:17;6.78;;;1.80;;
62014;SDS011;47970;52.396;9.586;2022-10-17T11:45:17;3.03;;;1.88;;
62014;SDS011;47970;52.396;9.586;2022-10-17T11:47:44;5.72;;;1.75;;
62014;SDS011;47970;52.396;9.586;2022-10-17T11:50:32;6.40;;;2.00;;
62014;SDS011;47970;52.396;9.586;2022-10-17T11:53:00;8.05;;;2.00;;
62014;SDS011;47970;52.396;9.586;2022-10-17T11:55:27;5.13;;;1.75;;
62014;SDS011;47970;52.396;9.586;2022-10-17T12:05:48;4.75;;;1.90;;
62014;SDS011;47970;52.396;9.586;2022-10-17T12:08:57;7.03;;;1.90;;
62014;SDS011;47970;52.396;9.586;2022-10-17T12:11:09;7.22;;;1.90;;
62014;SDS011;47970;52.396;9.586;2022-10-17T12:19:22;9.40;;;2.10;;
62014;SDS011;47970;52.396;9.586;2022-10-17T12:21:58;5.75;;;1.90;;
62014;SDS011;47970;52.396;9.586;2022-10-17T12:24:38;9.15;;;1.90;;
62014;SDS011;47970;52.396;9.586;2022-10-17T12:29:48;6.88;;;2.00;;
62014;SDS011;47970;52.396;9.586;2022-10-17T12:32:14;7.85;;;2.35;;
62014;SDS011;47970;52.396;9.586;2022-10-17T12:34:49;11.10;;;2.03;;
62014;SDS011;47970;52.396;9.586;2022-10-17T12:37:14;5.63;;;1.75;;
62014;SDS011;47970;52.396;9.586;2022-10-17T12:40:00;10.00;;;2.05;;
62014;SDS011;47970;52.396;9.586;2022-10-17T12:42:28;8.17;;;2.10;;
62014;SDS011;47970;52.396;9.586;2022-10-17T12:44:54;9.13;;;2.50;;
62014;SDS011;47970;52.396;9.586;2022-10-17T12:47:35;6.60;;;2.33;;
62014;SDS011;47970;52.396;9.586;2022-10-17T12:50:01;6.22;;;2.20;;
62014;SDS011;47970;52.396;9.586;2022-10-17T13:02:41;6.43;;;2.15;;
62014;SDS011;47970;52.396;9.586;2022-10-17T13:05:07;4.32;;;2.00;;
62014;SDS011;47970;52.396;9.586;2022-10-17T13:07:35;7.00;;;1.73;;
62014;SDS011;47970;52.396;9.586;2022-10-17T13:10:00;4.97;;;1.92;;
62014;SDS011;47970;52.396;9.586;2022-10-17T13:12:29;4.63;;;2.03;;
62014;SDS011;47970;52.396;9.586;2022-10-17T13:14:55;6.65;;;2.00;;
62014;SDS011;47970;52.396;9.586;2022-10-17T13:17:30;5.15;;;1.88;;
62014;SDS011;47970;52.396;9.586;2022-10-17T13:19:55;8.13;;;2.08;;
62014;SDS011;47970;52.396;9.586;2022-10-17T13:22:22;7.85;;;2.00;;
62014;SDS011;47970;52.396;9.586;2022-10-17T13:24:48;7.57;;;2.33;;
62014;SDS011;47970;52.396;9.586;2022-10-17T13:29:48;8.38;;;2.13;;
62014;SDS011;47970;52.396;9.586;2022-10-17T13:32:13;7.43;;;2.30;;
62014;SDS011;47970;52.396;9.586;2022-10-17T13:34:38;5.00;;;1.90;;
62014;SDS011;47970;52.396;9.586;2022-10-17T13:37:05;5.23;;;1.83;;
62014;SDS011;47970;52.396;9.586;2022-10-17T13:39:39;6.03;;;2.20;;
62014;SDS011;47970;52.396;9.586;2022-10-17T13:42:04;6.57;;;2.22;;
62014;SDS011;47970;52.396;9.586;2022-10-17T13:44:33;11.30;;;2.65;;
62014;SDS011;47970;52.396;9.586;2022-10-17T13:51:53;6.47;;;2.47;;
62014;SDS011;47970;52.396;9.586;2022-10-17T13:54:33;5.57;;;2.45;;
62014;SDS011;47970;52.396;9.586;2022-10-17T13:56:58;9.98;;;2.50;;
62014;SDS011;47970;52.396;9.586;2022-10-17T13:59:29;5.20;;;2.17;;
62014;SDS011;47970;52.396;9.586;2022-10-17T14:01:56;8.38;;;2.42;;
62014;SDS011;47970;52.396;9.586;2022-10-17T14:04:22;6.45;;;2.47;;
62014;SDS011;47970;52.396;9.586;2022-10-17T14:06:47;7.63;;;2.30;;
62014;SDS011;47970;52.396;9.586;2022-10-17T14:09:17;11.20;;;2.65;;
62014;SDS011;47970;52.396;9.586;2022-10-17T14:11:44;5.53;;;3.08;;
62014;SDS011;47970;52.396;9.586;2022-10-17T14:14:21;7.78;;;2.60;;
62014;SDS011;47970;52.396;9.586;2022-10-17T14:16:47;7.45;;;2.30;;
62014;SDS011;47970;52.396;9.586;2022-10-17T14:21:47;4.53;;;2.28;;
62014;SDS011;47970;52.396;9.586;2022-10-17T14:24:25;11.13;;;4.07;;
62014;SDS011;47970;52.396;9.586;2022-10-17T14:26:52;8.77;;;2.60;;
62014;SDS011;47970;52.396;9.586;2022-10-17T14:31:42;5.57;;;2.60;;
62014;SDS011;47970;52.396;9.586;2022-10-17T14:34:15;8.50;;;2.83;;
62014;SDS011;47970;52.396;9.586;2022-10-17T14:36:44;12.13;;;2.95;;
62014;SDS011;47970;52.396;9.586;2022-10-17T14:39:31;7.35;;;2.50;;
62014;SDS011;47970;52.396;9.586;2022-10-17T14:41:56;6.13;;;2.70;;
62014;SDS011;47970;52.396;9.586;2022-10-17T14:44:23;7.27;;;2.80;;
62014;SDS011;47970;52.396;9.586;2022-10-17T14:46:51;6.28;;;2.70;;
62014;SDS011;47970;52.396;9.586;2022-10-17T14:49:25;10.60;;;2.80;;
62014;SDS011;47970;52.396;9.586;2022-10-17T14:54:35;6.82;;;2.63;;
62014;SDS011;47970;52.396;9.586;2022-10-17T14:57:07;9.02;;;2.67;;
62014;SDS011;47970;52.396;9.586;2022-10-17T14:59:32;10.10;;;2.50;;
62014;SDS011;47970;52.396;9.586;2022-10-17T15:01:57;8.87;;;2.80;;
62014;SDS011;47970;52.396;9.586;2022-10-17T15:04:23;9.67;;;3.10;;
62014;SDS011;47970;52.396;9.586;2022-10-17T15:06:52;7.13;;;2.83;;
62014;SDS011;47970;52.396;9.586;2022-10-17T15:09:17;9.88;;;2.65;;
62014;SDS011;47970;52.396;9.586;2022-10-17T15:11:43;9.33;;;2.97;;
62014;SDS011;47970;52.396;9.586;2022-10-17T15:14:08;6.27;;;2.37;;
62014;SDS011;47970;52.396;9.586;2022-10-17T15:16:33;8.90;;;2.77;;
62014;SDS011;47970;52.396;9.586;2022-10-17T15:18:59;12.45;;;3.30;;
62014;SDS011;47970;52.396;9.586;2022-10-17T15:21:25;12.65;;;2.67;;
62014;SDS011;47970;52.396;9.586;2022-10-17T15:23:51;15.70;;;3.75;;
62014;SDS011;47970;52.396;9.586;2022-10-17T15:26:17;7.30;;;3.80;;
62014;SDS011;47970;52.396;9.586;2022-10-17T15:28:43;8.93;;;3.35;;
62014;SDS011;47970;52.396;9.586;2022-10-17T15:31:12;6.53;;;2.80;;
62014;SDS011;47970;52.396;9.586;2022-10-17T15:33:38;7.25;;;3.25;;
62014;SDS011;47970;52.396;9.586;2022-10-17T15:36:03;10.90;;;3.60;;
62014;SDS011;47970;52.396;9.586;2022-10-17T15:38:28;12.50;;;3.50;;
62014;SDS011;47970;52.396;9.586;2022-10-17T15:40:54;10.83;;;3.10;;
62014;SDS011;47970;52.396;9.586;2022-10-17T15:43:19;10.85;;;3.15;;
62014;SDS011;47970;52.396;9.586;2022-10-17T15:45:44;9.30;;;3.07;;
62014;SDS011;47970;52.396;9.586;2022-10-17T15:48:19;11.37;;;3.07;;
62014;SDS011;47970;52.396;9.586;2022-10-17T15:50:48;15.85;;;3.30;;
62014;SDS011;47970;52.396;9.586;2022-10-17T15:53:13;9.67;;;3.33;;
62014;SDS011;47970;52.396;9.586;2022-10-17T15:55:38;5.60;;;2.67;;
62014;SDS011;47970;52.396;9.586;2022-10-17T15:58:04;9.95;;;2.70;;
62014;SDS011;47970;52.396;9.586;2022-10-17T16:00:29;10.07;;;2.57;;
62014;SDS011;47970;52.396;9.586;2022-10-17T16:02:54;10.20;;;2.90;;
62014;SDS011;47970;52.396;9.586;2022-10-17T16:05:20;6.07;;;2.55;;
62014;SDS011;47970;52.396;9.586;2022-10-17T16:07:53;7.68;;;2.97;;
62014;SDS011;47970;52.396;9.586;2022-10-17T16:10:18;12.27;;;2.83;;
62014;SDS011;47970;52.396;9.586;2022-10-17T16:12:44;8.75;;;2.60;;
62014;SDS011;47970;52.396;9.586;2022-10-17T16:17:35;11.30;;;2.40;;
62014;SDS011;47970;52.396;9.586;2022-10-17T16:20:00;10.23;;;3.07;;
62014;SDS011;47970;52.396;9.586;2022-10-17T16:22:27;8.43;;;2.77;;
62014;SDS011;47970;52.396;9.586;2022-10-17T16:24:55;7.35;;;2.60;;
62014;SDS011;47970;52.396;9.586;2022-10-17T16:27:23;8.52;;;2.58;;
62014;SDS011;47970;52.396;9.586;2022-10-17T16:29:48;9.37;;;2.70;;
62014;SDS011;47970;52.396;9.586;2022-10-17T16:32:13;6.83;;;2.70;;
62014;SDS011;47970;52.396;9.586;2022-10-17T16:34:38;7.33;;;2.83;;
62014;SDS011;47970;52.396;9.586;2022-10-17T16:37:04;7.00;;;2.70;;
62014;SDS011;47970;52.396;9.586;2022-10-17T16:39:29;10.55;;;2.65;;
62014;SDS011;47970;52.396;9.586;2022-10-17T16:41:54;8.23;;;3.07;;
62014;SDS011;47970;52.396;9.586;2022-10-17T16:44:19;6.10;;;2.70;;